sensor_id;sensor_type;location;lat;lon;timestamp;temperature;humidity
79489;SHT31;68949;53.176;18.088;2024-03-02T00:00:40;8.44;84.40
79489;SHT31;68949;53.176;18.088;2024-03-02T00:03:27;8.43;84.47
79489;SHT31;68949;53.176;18.088;2024-03-02T00:05:53;8.43;84.53
79489;SHT31;68949;53.176;18.088;2024-03-02T00:08:24;8.40;84.57
79489;SHT31;68949;53.176;18.088;2024-03-02T00:10:57;8.38;84.66
79489;SHT31;68949;53.176;18.088;2024-03-02T00:13:26;8.37;84.72
79489;SHT31;68949;53.176;18.088;2024-03-02T00:15:54;8.34;84.78
79489;SHT31;68949;53.176;18.088;2024-03-02T00:18:33;8.33;84.84
79489;SHT31;68949;53.176;18.088;2024-03-02T00:21:01;8.32;84.93
79489;SHT31;68949;53.176;18.088;2024-03-02T00:23:30;8.28;84.97
79489;SHT31;68949;53.176;18.088;2024-03-02T00:25:58;8.26;85.03
79489;SHT31;68949;53.176;18.088;2024-03-02T00:28:29;8.26;85.09
79489;SHT31;68949;53.176;18.088;2024-03-02T00:31:12;8.26;85.10
79489;SHT31;68949;53.176;18.088;2024-03-02T00:33:46;8.24;85.13
79489;SHT31;68949;53.176;18.088;2024-03-02T00:36:16;8.23;85.17
79489;SHT31;68949;53.176;18.088;2024-03-02T00:38:51;8.23;85.21
79489;SHT31;68949;53.176;18.088;2024-03-02T00:41:27;8.20;85.28
79489;SHT31;68949;53.176;18.088;2024-03-02T00:44:04;8.17;85.39
79489;SHT31;68949;53.176;18.088;2024-03-02T00:46:34;8.17;85.45
79489;SHT31;68949;53.176;18.088;2024-03-02T00:49:04;8.19;85.47
79489;SHT31;68949;53.176;18.088;2024-03-02T00:51:38;8.18;85.47
79489;SHT31;68949;53.176;18.088;2024-03-02T00:54:08;8.18;85.52
79489;SHT31;68949;53.176;18.088;2024-03-02T00:56:36;8.16;85.53
79489;SHT31;68949;53.176;18.088;2024-03-02T00:59:03;8.15;85.64
79489;SHT31;68949;53.176;18.088;2024-03-02T01:01:30;8.13;85.68
79489;SHT31;68949;53.176;18.088;2024-03-02T01:03:59;8.12;85.75
79489;SHT31;68949;53.176;18.088;2024-03-02T01:06:26;8.10;85.80
79489;SHT31;68949;53.176;18.088;2024-03-02T01:08:54;8.07;85.86
79489;SHT31;68949;53.176;18.088;2024-03-02T01:11:20;8.06;85.91
79489;SHT31;68949;53.176;18.088;2024-03-02T01:13:51;8.06;85.90
79489;SHT31;68949;53.176;18.088;2024-03-02T01:16:18;8.08;85.90
79489;SHT31;68949;53.176;18.088;2024-03-02T01:18:45;8.08;85.89
79489;SHT31;68949;53.176;18.088;2024-03-02T01:21:12;8.08;85.86
79489;SHT31;68949;53.176;18.088;2024-03-02T01:23:38;8.08;85.87
79489;SHT31;68949;53.176;18.088;2024-03-02T01:26:06;8.03;85.89
79489;SHT31;68949;53.176;18.088;2024-03-02T01:28:33;8.01;85.95
79489;SHT31;68949;53.176;18.088;2024-03-02T01:31:00;8.01;85.98
79489;SHT31;68949;53.176;18.088;2024-03-02T01:33:28;8.02;85.94
79489;SHT31;68949;53.176;18.088;2024-03-02T01:35:55;8.03;85.95
79489;SHT31;68949;53.176;18.088;2024-03-02T01:38:21;8.04;85.98
79489;SHT31;68949;53.176;18.088;2024-03-02T01:40:48;8.03;85.92
79489;SHT31;68949;53.176;18.088;2024-03-02T01:43:15;8.00;85.90
79489;SHT31;68949;53.176;18.088;2024-03-02T01:45:42;7.98;85.95
79489;SHT31;68949;53.176;18.088;2024-03-02T01:48:09;7.95;86.00
79489;SHT31;68949;53.176;18.088;2024-03-02T01:50:35;7.95;85.98
79489;SHT31;68949;53.176;18.088;2024-03-02T01:53:02;7.94;86.01
79489;SHT31;68949;53.176;18.088;2024-03-02T01:55:29;7.96;86.02
79489;SHT31;68949;53.176;18.088;2024-03-02T01:57:56;7.97;85.97
79489;SHT31;68949;53.176;18.088;2024-03-02T02:00:24;7.96;86.01
79489;SHT31;68949;53.176;18.088;2024-03-02T02:02:53;7.95;86.00
79489;SHT31;68949;53.176;18.088;2024-03-02T02:05:21;7.95;85.99
79489;SHT31;68949;53.176;18.088;2024-03-02T02:07:48;7.96;85.99
79489;SHT31;68949;53.176;18.088;2024-03-02T02:10:15;7.95;85.99
79489;SHT31;68949;53.176;18.088;2024-03-02T02:12:42;7.93;86.01
79489;SHT31;68949;53.176;18.088;2024-03-02T02:17:54;7.90;86.09
79489;SHT31;68949;53.176;18.088;2024-03-02T02:20:25;7.89;86.04
79489;SHT31;68949;53.176;18.088;2024-03-02T02:22:56;7.86;86.00
79489;SHT31;68949;53.176;18.088;2024-03-02T02:25:25;7.82;86.05
79489;SHT31;68949;53.176;18.088;2024-03-02T02:27:53;7.77;86.13
79489;SHT31;68949;53.176;18.088;2024-03-02T02:30:23;7.72;86.16
79489;SHT31;68949;53.176;18.088;2024-03-02T02:32:56;7.71;86.18
79489;SHT31;68949;53.176;18.088;2024-03-02T02:35:22;7.69;86.13
79489;SHT31;68949;53.176;18.088;2024-03-02T02:37:53;7.67;86.14
79489;SHT31;68949;53.176;18.088;2024-03-02T02:40:22;7.66;86.10
79489;SHT31;68949;53.176;18.088;2024-03-02T02:42:50;7.65;86.10
79489;SHT31;68949;53.176;18.088;2024-03-02T02:45:18;7.61;86.13
79489;SHT31;68949;53.176;18.088;2024-03-02T02:47:46;7.59;86.14
79489;SHT31;68949;53.176;18.088;2024-03-02T02:50:14;7.58;86.20
79489;SHT31;68949;53.176;18.088;2024-03-02T02:52:41;7.57;86.23
79489;SHT31;68949;53.176;18.088;2024-03-02T02:55:10;7.58;86.25
79489;SHT31;68949;53.176;18.088;2024-03-02T02:57:42;7.57;86.29
79489;SHT31;68949;53.176;18.088;2024-03-02T03:00:15;7.57;86.25
79489;SHT31;68949;53.176;18.088;2024-03-02T03:02:46;7.55;86.22
79489;SHT31;68949;53.176;18.088;2024-03-02T03:05:15;7.52;86.23
79489;SHT31;68949;53.176;18.088;2024-03-02T03:07:42;7.49;86.20
79489;SHT31;68949;53.176;18.088;2024-03-02T03:10:11;7.48;86.24
79489;SHT31;68949;53.176;18.088;2024-03-02T03:12:37;7.47;86.21
79489;SHT31;68949;53.176;18.088;2024-03-02T03:15:04;7.46;86.21
79489;SHT31;68949;53.176;18.088;2024-03-02T03:17:33;7.46;86.21
79489;SHT31;68949;53.176;18.088;2024-03-02T03:20:01;7.44;86.20
79489;SHT31;68949;53.176;18.088;2024-03-02T03:22:30;7.40;86.23
79489;SHT31;68949;53.176;18.088;2024-03-02T03:25:01;7.37;86.31
79489;SHT31;68949;53.176;18.088;2024-03-02T03:27:31;7.36;86.29
79489;SHT31;68949;53.176;18.088;2024-03-02T03:29:59;7.32;86.31
79489;SHT31;68949;53.176;18.088;2024-03-02T03:32:26;7.29;86.38
79489;SHT31;68949;53.176;18.088;2024-03-02T03:34:54;7.29;86.39
79489;SHT31;68949;53.176;18.088;2024-03-02T03:37:22;7.27;86.40
79489;SHT31;68949;53.176;18.088;2024-03-02T03:39:51;7.28;86.48
79489;SHT31;68949;53.176;18.088;2024-03-02T03:42:20;7.30;86.50
79489;SHT31;68949;53.176;18.088;2024-03-02T03:44:47;7.31;86.50
79489;SHT31;68949;53.176;18.088;2024-03-02T03:47:13;7.30;86.51
79489;SHT31;68949;53.176;18.088;2024-03-02T03:49:40;7.30;86.51
79489;SHT31;68949;53.176;18.088;2024-03-02T03:52:07;7.29;86.58
79489;SHT31;68949;53.176;18.088;2024-03-02T03:54:35;7.31;86.60
79489;SHT31;68949;53.176;18.088;2024-03-02T03:57:03;7.34;86.60
79489;SHT31;68949;53.176;18.088;2024-03-02T03:59:31;7.36;86.53
79489;SHT31;68949;53.176;18.088;2024-03-02T04:01:58;7.36;86.50
79489;SHT31;68949;53.176;18.088;2024-03-02T04:04:24;7.35;86.50
79489;SHT31;68949;53.176;18.088;2024-03-02T04:06:51;7.37;86.56
79489;SHT31;68949;53.176;18.088;2024-03-02T04:09:18;7.38;86.50
79489;SHT31;68949;53.176;18.088;2024-03-02T04:11:45;7.41;86.50
79489;SHT31;68949;53.176;18.088;2024-03-02T04:14:12;7.43;86.42
79489;SHT31;68949;53.176;18.088;2024-03-02T04:16:38;7.43;86.40
79489;SHT31;68949;53.176;18.088;2024-03-02T04:19:06;7.41;86.39
79489;SHT31;68949;53.176;18.088;2024-03-02T04:21:34;7.40;86.40
79489;SHT31;68949;53.176;18.088;2024-03-02T04:24:01;7.41;86.39
79489;SHT31;68949;53.176;18.088;2024-03-02T04:26:28;7.43;86.32
79489;SHT31;68949;53.176;18.088;2024-03-02T04:28:55;7.45;86.28
79489;SHT31;68949;53.176;18.088;2024-03-02T04:31:22;7.45;86.24
79489;SHT31;68949;53.176;18.088;2024-03-02T04:33:49;7.46;86.24
79489;SHT31;68949;53.176;18.088;2024-03-02T04:36:16;7.45;86.19
79489;SHT31;68949;53.176;18.088;2024-03-02T04:38:43;7.45;86.19
79489;SHT31;68949;53.176;18.088;2024-03-02T04:41:10;7.46;86.20
79489;SHT31;68949;53.176;18.088;2024-03-02T04:43:41;7.47;86.18
79489;SHT31;68949;53.176;18.088;2024-03-02T04:46:07;7.47;86.18
79489;SHT31;68949;53.176;18.088;2024-03-02T04:48:34;7.46;86.18
79489;SHT31;68949;53.176;18.088;2024-03-02T04:51:03;7.46;86.19
79489;SHT31;68949;53.176;18.088;2024-03-02T04:53:32;7.48;86.20
79489;SHT31;68949;53.176;18.088;2024-03-02T04:56:00;7.48;86.18
79489;SHT31;68949;53.176;18.088;2024-03-02T04:58:48;7.49;86.11
79489;SHT31;68949;53.176;18.088;2024-03-02T05:01:14;7.50;86.11
79489;SHT31;68949;53.176;18.088;2024-03-02T05:03:43;7.51;86.12
79489;SHT31;68949;53.176;18.088;2024-03-02T05:06:13;7.50;86.16
79489;SHT31;68949;53.176;18.088;2024-03-02T05:08:42;7.51;86.17
79489;SHT31;68949;53.176;18.088;2024-03-02T05:11:11;7.53;86.11
79489;SHT31;68949;53.176;18.088;2024-03-02T05:13:57;7.56;86.11
79489;SHT31;68949;53.176;18.088;2024-03-02T05:16:24;7.57;86.06
79489;SHT31;68949;53.176;18.088;2024-03-02T05:18:52;7.59;86.06
79489;SHT31;68949;53.176;18.088;2024-03-02T05:21:18;7.61;86.03
79489;SHT31;68949;53.176;18.088;2024-03-02T05:23:45;7.59;85.99
79489;SHT31;68949;53.176;18.088;2024-03-02T05:26:12;7.59;85.94
79489;SHT31;68949;53.176;18.088;2024-03-02T05:28:39;7.60;85.97
79489;SHT31;68949;53.176;18.088;2024-03-02T05:31:05;7.61;85.91
79489;SHT31;68949;53.176;18.088;2024-03-02T05:33:33;7.62;85.90
79489;SHT31;68949;53.176;18.088;2024-03-02T05:35:59;7.65;85.86
79489;SHT31;68949;53.176;18.088;2024-03-02T05:38:28;7.65;85.81
79489;SHT31;68949;53.176;18.088;2024-03-02T05:40:54;7.63;85.85
79489;SHT31;68949;53.176;18.088;2024-03-02T05:43:21;7.61;85.84
79489;SHT31;68949;53.176;18.088;2024-03-02T05:45:48;7.60;85.89
79489;SHT31;68949;53.176;18.088;2024-03-02T05:48:15;7.59;85.90
79489;SHT31;68949;53.176;18.088;2024-03-02T05:50:42;7.58;85.91
79489;SHT31;68949;53.176;18.088;2024-03-02T05:53:09;7.61;85.95
79489;SHT31;68949;53.176;18.088;2024-03-02T05:55:36;7.63;85.92
79489;SHT31;68949;53.176;18.088;2024-03-02T05:58:02;7.63;85.87
79489;SHT31;68949;53.176;18.088;2024-03-02T06:00:32;7.61;85.87
79489;SHT31;68949;53.176;18.088;2024-03-02T06:02:59;7.61;85.88
79489;SHT31;68949;53.176;18.088;2024-03-02T06:05:26;7.62;85.87
79489;SHT31;68949;53.176;18.088;2024-03-02T06:07:53;7.61;85.84
79489;SHT31;68949;53.176;18.088;2024-03-02T06:10:20;7.63;85.90
79489;SHT31;68949;53.176;18.088;2024-03-02T06:12:47;7.64;85.84
79489;SHT31;68949;53.176;18.088;2024-03-02T06:15:14;7.63;85.79
79489;SHT31;68949;53.176;18.088;2024-03-02T06:17:40;7.62;85.83
79489;SHT31;68949;53.176;18.088;2024-03-02T06:20:07;7.62;85.86
79489;SHT31;68949;53.176;18.088;2024-03-02T06:22:35;7.64;85.83
79489;SHT31;68949;53.176;18.088;2024-03-02T06:25:02;7.64;85.81
79489;SHT31;68949;53.176;18.088;2024-03-02T06:27:28;7.66;85.82
79489;SHT31;68949;53.176;18.088;2024-03-02T06:29:55;7.67;85.81
79489;SHT31;68949;53.176;18.088;2024-03-02T06:32:22;7.69;85.80
79489;SHT31;68949;53.176;18.088;2024-03-02T06:34:51;7.69;85.78
79489;SHT31;68949;53.176;18.088;2024-03-02T06:37:18;7.71;85.73
79489;SHT31;68949;53.176;18.088;2024-03-02T06:39:45;7.73;85.68
79489;SHT31;68949;53.176;18.088;2024-03-02T06:42:11;7.73;85.68
79489;SHT31;68949;53.176;18.088;2024-03-02T06:44:38;7.73;85.75
79489;SHT31;68949;53.176;18.088;2024-03-02T06:47:05;7.74;85.71
79489;SHT31;68949;53.176;18.088;2024-03-02T06:49:32;7.76;85.68
79489;SHT31;68949;53.176;18.088;2024-03-02T06:52:00;7.77;85.63
79489;SHT31;68949;53.176;18.088;2024-03-02T06:54:27;7.79;85.67
79489;SHT31;68949;53.176;18.088;2024-03-02T06:56:54;7.83;85.61
79489;SHT31;68949;53.176;18.088;2024-03-02T06:59:20;7.85;85.54
79489;SHT31;68949;53.176;18.088;2024-03-02T07:01:47;7.85;85.50
79489;SHT31;68949;53.176;18.088;2024-03-02T07:04:15;7.87;85.49
79489;SHT31;68949;53.176;18.088;2024-03-02T07:06:42;7.90;85.41
79489;SHT31;68949;53.176;18.088;2024-03-02T07:09:08;7.92;85.38
79489;SHT31;68949;53.176;18.088;2024-03-02T07:11:37;7.96;85.33
79489;SHT31;68949;53.176;18.088;2024-03-02T07:14:05;7.96;85.29
79489;SHT31;68949;53.176;18.088;2024-03-02T07:16:32;7.97;85.30
79489;SHT31;68949;53.176;18.088;2024-03-02T07:19:01;7.99;85.27
79489;SHT31;68949;53.176;18.088;2024-03-02T07:21:31;8.00;85.27
79489;SHT31;68949;53.176;18.088;2024-03-02T07:23:59;8.02;85.24
79489;SHT31;68949;53.176;18.088;2024-03-02T07:26:26;8.06;85.14
79489;SHT31;68949;53.176;18.088;2024-03-02T07:28:53;8.11;85.09
79489;SHT31;68949;53.176;18.088;2024-03-02T07:31:21;8.17;84.99
79489;SHT31;68949;53.176;18.088;2024-03-02T07:33:48;8.23;84.90
79489;SHT31;68949;53.176;18.088;2024-03-02T07:36:14;8.29;84.82
79489;SHT31;68949;53.176;18.088;2024-03-02T07:38:42;8.33;84.76
79489;SHT31;68949;53.176;18.088;2024-03-02T07:41:10;8.37;84.70
79489;SHT31;68949;53.176;18.088;2024-03-02T07:43:37;8.44;84.59
79489;SHT31;68949;53.176;18.088;2024-03-02T07:46:05;8.49;84.49
79489;SHT31;68949;53.176;18.088;2024-03-02T07:48:32;8.55;84.42
79489;SHT31;68949;53.176;18.088;2024-03-02T07:50:59;8.62;84.34
79489;SHT31;68949;53.176;18.088;2024-03-02T07:53:26;8.67;84.17
79489;SHT31;68949;53.176;18.088;2024-03-02T07:55:53;8.75;84.13
79489;SHT31;68949;53.176;18.088;2024-03-02T07:58:20;8.90;84.06
79489;SHT31;68949;53.176;18.088;2024-03-02T08:00:47;9.10;83.87
79489;SHT31;68949;53.176;18.088;2024-03-02T08:03:14;9.32;83.58
79489;SHT31;68949;53.176;18.088;2024-03-02T08:05:41;9.51;83.25
79489;SHT31;68949;53.176;18.088;2024-03-02T08:08:08;9.63;82.91
79489;SHT31;68949;53.176;18.088;2024-03-02T08:10:35;9.73;82.82
79489;SHT31;68949;53.176;18.088;2024-03-02T08:13:02;9.83;82.59
79489;SHT31;68949;53.176;18.088;2024-03-02T08:15:28;9.89;82.11
79489;SHT31;68949;53.176;18.088;2024-03-02T08:17:55;9.93;82.06
79489;SHT31;68949;53.176;18.088;2024-03-02T08:20:22;10.01;82.07
79489;SHT31;68949;53.176;18.088;2024-03-02T08:22:49;10.06;82.12
79489;SHT31;68949;53.176;18.088;2024-03-02T08:25:17;10.08;82.03
79489;SHT31;68949;53.176;18.088;2024-03-02T08:27:44;10.01;81.72
79489;SHT31;68949;53.176;18.088;2024-03-02T08:30:11;9.96;81.76
79489;SHT31;68949;53.176;18.088;2024-03-02T08:32:39;9.95;81.73
79489;SHT31;68949;53.176;18.088;2024-03-02T08:35:06;9.95;81.64
79489;SHT31;68949;53.176;18.088;2024-03-02T08:37:33;10.07;81.81
79489;SHT31;68949;53.176;18.088;2024-03-02T08:40:00;10.24;81.76
79489;SHT31;68949;53.176;18.088;2024-03-02T08:42:27;10.34;81.27
79489;SHT31;68949;53.176;18.088;2024-03-02T08:44:55;10.40;81.20
79489;SHT31;68949;53.176;18.088;2024-03-02T08:47:22;10.46;81.19
79489;SHT31;68949;53.176;18.088;2024-03-02T08:49:49;10.53;80.97
79489;SHT31;68949;53.176;18.088;2024-03-02T08:52:15;10.62;81.02
79489;SHT31;68949;53.176;18.088;2024-03-02T08:54:43;10.74;80.91
79489;SHT31;68949;53.176;18.088;2024-03-02T08:57:10;10.77;80.63
79489;SHT31;68949;53.176;18.088;2024-03-02T08:59:37;10.72;80.44
79489;SHT31;68949;53.176;18.088;2024-03-02T09:02:04;10.61;80.46
79489;SHT31;68949;53.176;18.088;2024-03-02T09:04:30;10.51;80.47
79489;SHT31;68949;53.176;18.088;2024-03-02T09:06:57;10.46;80.60
79489;SHT31;68949;53.176;18.088;2024-03-02T09:09:24;10.43;80.77
79489;SHT31;68949;53.176;18.088;2024-03-02T09:11:50;10.50;80.77
79489;SHT31;68949;53.176;18.088;2024-03-02T09:14:17;10.60;80.58
79489;SHT31;68949;53.176;18.088;2024-03-02T09:16:44;10.74;80.44
79489;SHT31;68949;53.176;18.088;2024-03-02T09:19:11;10.85;80.29
79489;SHT31;68949;53.176;18.088;2024-03-02T09:21:37;10.84;80.06
79489;SHT31;68949;53.176;18.088;2024-03-02T09:24:04;10.85;80.14
79489;SHT31;68949;53.176;18.088;2024-03-02T09:26:33;10.90;79.92
79489;SHT31;68949;53.176;18.088;2024-03-02T09:29:00;10.86;79.86
79489;SHT31;68949;53.176;18.088;2024-03-02T09:31:28;10.81;79.89
79489;SHT31;68949;53.176;18.088;2024-03-02T09:33:56;10.75;79.74
79489;SHT31;68949;53.176;18.088;2024-03-02T09:36:24;10.75;79.99
79489;SHT31;68949;53.176;18.088;2024-03-02T09:38:51;10.85;79.97
79489;SHT31;68949;53.176;18.088;2024-03-02T09:41:17;10.93;79.89
79489;SHT31;68949;53.176;18.088;2024-03-02T09:43:47;10.98;79.62
79489;SHT31;68949;53.176;18.088;2024-03-02T09:46:15;11.03;79.51
79489;SHT31;68949;53.176;18.088;2024-03-02T09:48:43;11.03;79.33
79489;SHT31;68949;53.176;18.088;2024-03-02T09:51:11;11.07;79.40
79489;SHT31;68949;53.176;18.088;2024-03-02T09:53:41;11.15;79.32
79489;SHT31;68949;53.176;18.088;2024-03-02T09:56:09;11.29;79.27
79489;SHT31;68949;53.176;18.088;2024-03-02T09:58:36;11.39;78.84
79489;SHT31;68949;53.176;18.088;2024-03-02T10:01:05;11.44;78.52
79489;SHT31;68949;53.176;18.088;2024-03-02T10:03:33;11.43;78.39
79489;SHT31;68949;53.176;18.088;2024-03-02T10:06:19;11.40;78.48
79489;SHT31;68949;53.176;18.088;2024-03-02T10:08:52;11.43;78.61
79489;SHT31;68949;53.176;18.088;2024-03-02T10:11:30;11.50;78.52
79489;SHT31;68949;53.176;18.088;2024-03-02T10:14:04;11.66;78.54
79489;SHT31;68949;53.176;18.088;2024-03-02T10:16:40;11.78;78.00
79489;SHT31;68949;53.176;18.088;2024-03-02T10:21:50;11.84;77.69
79489;SHT31;68949;53.176;18.088;2024-03-02T10:24:19;11.79;77.52
79489;SHT31;68949;53.176;18.088;2024-03-02T10:26:48;11.81;77.75
79489;SHT31;68949;53.176;18.088;2024-03-02T10:29:17;11.91;77.63
79489;SHT31;68949;53.176;18.088;2024-03-02T10:31:45;12.06;77.51
79489;SHT31;68949;53.176;18.088;2024-03-02T10:34:13;12.19;77.07
79489;SHT31;68949;53.176;18.088;2024-03-02T10:36:42;12.26;76.72
79489;SHT31;68949;53.176;18.088;2024-03-02T10:39:12;12.32;76.63
79489;SHT31;68949;53.176;18.088;2024-03-02T10:41:40;12.37;76.50
79489;SHT31;68949;53.176;18.088;2024-03-02T10:44:08;12.42;76.71
79489;SHT31;68949;53.176;18.088;2024-03-02T10:46:36;12.47;76.30
79489;SHT31;68949;53.176;18.088;2024-03-02T10:49:05;12.48;76.04
79489;SHT31;68949;53.176;18.088;2024-03-02T10:51:33;12.53;76.08
79489;SHT31;68949;53.176;18.088;2024-03-02T10:54:03;12.58;75.99
79489;SHT31;68949;53.176;18.088;2024-03-02T10:56:32;12.57;75.70
79489;SHT31;68949;53.176;18.088;2024-03-02T10:59:17;12.53;75.71
79489;SHT31;68949;53.176;18.088;2024-03-02T11:01:58;12.55;76.05
79489;SHT31;68949;53.176;18.088;2024-03-02T11:04:30;12.67;76.04
79489;SHT31;68949;53.176;18.088;2024-03-02T11:07:04;12.76;75.86
79489;SHT31;68949;53.176;18.088;2024-03-02T11:09:35;12.82;75.49
79489;SHT31;68949;53.176;18.088;2024-03-02T11:15:05;12.86;75.34
79489;SHT31;68949;53.176;18.088;2024-03-02T11:17:39;12.89;75.20
79489;SHT31;68949;53.176;18.088;2024-03-02T11:20:07;12.89;75.27
79489;SHT31;68949;53.176;18.088;2024-03-02T11:22:35;12.90;75.19
79489;SHT31;68949;53.176;18.088;2024-03-02T11:25:03;12.89;74.91
79489;SHT31;68949;53.176;18.088;2024-03-02T11:33:01;12.93;75.18
79489;SHT31;68949;53.176;18.088;2024-03-02T11:35:37;12.99;75.08
79489;SHT31;68949;53.176;18.088;2024-03-02T11:38:15;13.04;74.82
79489;SHT31;68949;53.176;18.088;2024-03-02T11:40:42;13.06;74.64
79489;SHT31;68949;53.176;18.088;2024-03-02T11:43:09;13.10;74.48
79489;SHT31;68949;53.176;18.088;2024-03-02T11:45:37;13.13;74.49
79489;SHT31;68949;53.176;18.088;2024-03-02T11:48:10;13.15;74.23
79489;SHT31;68949;53.176;18.088;2024-03-02T11:50:42;13.16;74.31
79489;SHT31;68949;53.176;18.088;2024-03-02T11:53:16;13.20;74.37
79489;SHT31;68949;53.176;18.088;2024-03-02T11:55:44;13.21;73.88
79489;SHT31;68949;53.176;18.088;2024-03-02T11:58:15;13.21;73.72
79489;SHT31;68949;53.176;18.088;2024-03-02T12:00:44;13.22;73.88
79489;SHT31;68949;53.176;18.088;2024-03-02T12:03:14;13.23;73.58
79489;SHT31;68949;53.176;18.088;2024-03-02T12:05:42;13.25;73.70
79489;SHT31;68949;53.176;18.088;2024-03-02T12:08:11;13.28;73.63
79489;SHT31;68949;53.176;18.088;2024-03-02T12:10:43;13.33;73.41
79489;SHT31;68949;53.176;18.088;2024-03-02T12:13:25;13.34;73.66
79489;SHT31;68949;53.176;18.088;2024-03-02T12:15:53;13.32;73.00
79489;SHT31;68949;53.176;18.088;2024-03-02T12:18:22;13.26;73.09
79489;SHT31;68949;53.176;18.088;2024-03-02T12:20:49;13.24;73.13
79489;SHT31;68949;53.176;18.088;2024-03-02T12:23:24;13.25;72.90
79489;SHT31;68949;53.176;18.088;2024-03-02T12:25:51;13.27;73.04
79489;SHT31;68949;53.176;18.088;2024-03-02T12:28:19;13.28;73.17
79489;SHT31;68949;53.176;18.088;2024-03-02T12:30:46;13.26;73.15
79489;SHT31;68949;53.176;18.088;2024-03-02T12:33:14;13.26;73.01
79489;SHT31;68949;53.176;18.088;2024-03-02T12:35:41;13.24;73.10
79489;SHT31;68949;53.176;18.088;2024-03-02T12:38:09;13.26;72.97
79489;SHT31;68949;53.176;18.088;2024-03-02T12:40:37;13.31;72.97
79489;SHT31;68949;53.176;18.088;2024-03-02T12:43:04;13.28;73.12
79489;SHT31;68949;53.176;18.088;2024-03-02T12:45:33;13.22;73.55
79489;SHT31;68949;53.176;18.088;2024-03-02T12:48:01;13.18;73.61
79489;SHT31;68949;53.176;18.088;2024-03-02T12:50:30;13.15;73.92
79489;SHT31;68949;53.176;18.088;2024-03-02T12:52:57;13.20;73.98
79489;SHT31;68949;53.176;18.088;2024-03-02T12:55:24;13.17;73.69
79489;SHT31;68949;53.176;18.088;2024-03-02T12:57:51;13.08;73.49
79489;SHT31;68949;53.176;18.088;2024-03-02T13:00:19;13.01;73.58
79489;SHT31;68949;53.176;18.088;2024-03-02T13:02:47;12.90;73.70
79489;SHT31;68949;53.176;18.088;2024-03-02T13:05:17;12.82;73.99
79489;SHT31;68949;53.176;18.088;2024-03-02T13:07:46;12.80;74.09
79489;SHT31;68949;53.176;18.088;2024-03-02T13:10:14;12.85;74.06
79489;SHT31;68949;53.176;18.088;2024-03-02T13:12:41;12.86;74.13
79489;SHT31;68949;53.176;18.088;2024-03-02T13:15:08;12.88;74.14
79489;SHT31;68949;53.176;18.088;2024-03-02T13:17:36;12.88;74.19
79489;SHT31;68949;53.176;18.088;2024-03-02T13:20:05;12.85;74.24
79489;SHT31;68949;53.176;18.088;2024-03-02T13:22:37;12.76;74.47
79489;SHT31;68949;53.176;18.088;2024-03-02T13:25:04;12.67;74.42
79489;SHT31;68949;53.176;18.088;2024-03-02T13:27:33;12.55;74.59
79489;SHT31;68949;53.176;18.088;2024-03-02T13:30:01;12.43;74.81
79489;SHT31;68949;53.176;18.088;2024-03-02T13:32:29;12.36;74.98
79489;SHT31;68949;53.176;18.088;2024-03-02T13:34:56;12.35;75.07
79489;SHT31;68949;53.176;18.088;2024-03-02T13:37:23;12.41;75.10
79489;SHT31;68949;53.176;18.088;2024-03-02T13:39:50;12.49;74.95
79489;SHT31;68949;53.176;18.088;2024-03-02T13:42:17;12.54;74.89
79489;SHT31;68949;53.176;18.088;2024-03-02T13:44:44;12.60;74.86
79489;SHT31;68949;53.176;18.088;2024-03-02T13:47:13;12.60;74.57
79489;SHT31;68949;53.176;18.088;2024-03-02T13:49:42;12.58;74.54
79489;SHT31;68949;53.176;18.088;2024-03-02T13:52:13;12.57;74.56
79489;SHT31;68949;53.176;18.088;2024-03-02T13:54:40;12.56;74.65
79489;SHT31;68949;53.176;18.088;2024-03-02T13:57:08;12.53;74.68
79489;SHT31;68949;53.176;18.088;2024-03-02T13:59:37;12.49;74.60
79489;SHT31;68949;53.176;18.088;2024-03-02T14:02:05;12.45;74.57
79489;SHT31;68949;53.176;18.088;2024-03-02T14:04:35;12.37;74.79
79489;SHT31;68949;53.176;18.088;2024-03-02T14:07:03;12.36;74.91
79489;SHT31;68949;53.176;18.088;2024-03-02T14:09:31;12.37;74.90
79489;SHT31;68949;53.176;18.088;2024-03-02T14:11:57;12.34;74.79
79489;SHT31;68949;53.176;18.088;2024-03-02T14:14:27;12.31;74.95
79489;SHT31;68949;53.176;18.088;2024-03-02T14:16:57;12.27;75.01
79489;SHT31;68949;53.176;18.088;2024-03-02T14:19:32;12.23;75.05
79489;SHT31;68949;53.176;18.088;2024-03-02T14:21:59;12.15;75.00
79489;SHT31;68949;53.176;18.088;2024-03-02T14:24:27;12.08;75.32
79489;SHT31;68949;53.176;18.088;2024-03-02T14:26:57;12.04;75.34
79489;SHT31;68949;53.176;18.088;2024-03-02T14:29:26;11.92;75.48
79489;SHT31;68949;53.176;18.088;2024-03-02T14:31:53;11.82;75.78
79489;SHT31;68949;53.176;18.088;2024-03-02T14:34:19;11.78;75.75
79489;SHT31;68949;53.176;18.088;2024-03-02T14:36:46;11.69;75.89
79489;SHT31;68949;53.176;18.088;2024-03-02T14:39:13;11.61;75.94
79489;SHT31;68949;53.176;18.088;2024-03-02T14:41:40;11.58;76.21
79489;SHT31;68949;53.176;18.088;2024-03-02T14:44:07;11.54;76.40
79489;SHT31;68949;53.176;18.088;2024-03-02T14:46:34;11.49;76.36
79489;SHT31;68949;53.176;18.088;2024-03-02T14:49:07;11.42;76.54
79489;SHT31;68949;53.176;18.088;2024-03-02T14:51:34;11.36;76.67
79489;SHT31;68949;53.176;18.088;2024-03-02T14:54:02;11.32;76.84
79489;SHT31;68949;53.176;18.088;2024-03-02T14:56:29;11.27;76.95
79489;SHT31;68949;53.176;18.088;2024-03-02T14:58:58;11.24;77.02
79489;SHT31;68949;53.176;18.088;2024-03-02T15:01:46;11.22;76.99
79489;SHT31;68949;53.176;18.088;2024-03-02T15:04:14;11.16;77.28
79489;SHT31;68949;53.176;18.088;2024-03-02T15:06:43;11.13;77.39
79489;SHT31;68949;53.176;18.088;2024-03-02T15:09:09;11.12;77.45
79489;SHT31;68949;53.176;18.088;2024-03-02T15:11:36;11.11;77.42
79489;SHT31;68949;53.176;18.088;2024-03-02T15:14:03;11.09;77.54
79489;SHT31;68949;53.176;18.088;2024-03-02T15:16:29;11.04;77.64
79489;SHT31;68949;53.176;18.088;2024-03-02T15:18:56;11.01;77.67
79489;SHT31;68949;53.176;18.088;2024-03-02T15:21:23;10.96;77.71
79489;SHT31;68949;53.176;18.088;2024-03-02T15:23:50;10.91;77.75
79489;SHT31;68949;53.176;18.088;2024-03-02T15:26:16;10.87;77.91
79489;SHT31;68949;53.176;18.088;2024-03-02T15:28:43;10.83;78.03
79489;SHT31;68949;53.176;18.088;2024-03-02T15:31:10;10.78;78.07
79489;SHT31;68949;53.176;18.088;2024-03-02T15:33:37;10.75;78.14
79489;SHT31;68949;53.176;18.088;2024-03-02T15:36:04;10.73;78.24
79489;SHT31;68949;53.176;18.088;2024-03-02T15:38:32;10.67;78.36
79489;SHT31;68949;53.176;18.088;2024-03-02T15:40:59;10.66;78.38
79489;SHT31;68949;53.176;18.088;2024-03-02T15:43:25;10.64;78.48
79489;SHT31;68949;53.176;18.088;2024-03-02T15:45:53;10.62;78.50